sensor_id;sensor_type;location;lat;lon;timestamp;pressure;altitude;pressure_sealevel;temperature;humidity
77776;BME280;66965;43.328;6.668;2023-04-02T00:02:31;100442.50;;;12.15;46.22
77776;BME280;66965;43.328;6.668;2023-04-02T00:07:41;100460.09;;;12.13;46.47
77776;BME280;66965;43.328;6.668;2023-04-02T00:13:17;100465.38;;;12.11;46.63
77776;BME280;66965;43.328;6.668;2023-04-02T00:15:48;100482.28;;;12.04;46.66
77776;BME280;66965;43.328;6.668;2023-04-02T00:18:25;100488.03;;;12.15;46.21
77776;BME280;66965;43.328;6.668;2023-04-02T00:21:04;100479.66;;;12.04;46.93
77776;BME280;66965;43.328;6.668;2023-04-02T00:23:35;100471.66;;;12.07;46.66
77776;BME280;66965;43.328;6.668;2023-04-02T00:26:05;100464.53;;;12.11;46.58
77776;BME280;66965;43.328;6.668;2023-04-02T00:28:30;100473.34;;;12.10;46.82
77776;BME280;66965;43.328;6.668;2023-04-02T00:30:58;100467.50;;;12.00;47.39
77776;BME280;66965;43.328;6.668;2023-04-02T00:33:29;100490.06;;;12.07;47.15
77776;BME280;66965;43.328;6.668;2023-04-02T00:35:55;100477.97;;;12.02;47.24
77776;BME280;66965;43.328;6.668;2023-04-02T00:40:50;100475.44;;;11.99;47.01
77776;BME280;66965;43.328;6.668;2023-04-02T00:43:17;100462.34;;;11.97;47.35
77776;BME280;66965;43.328;6.668;2023-04-02T00:45:45;100481.78;;;11.92;47.53
77776;BME280;66965;43.328;6.668;2023-04-02T00:48:36;100453.72;;;11.94;47.49
77776;BME280;66965;43.328;6.668;2023-04-02T00:51:52;100466.13;;;11.88;47.50
77776;BME280;66965;43.328;6.668;2023-04-02T00:54:20;100470.44;;;11.91;47.38
77776;BME280;66965;43.328;6.668;2023-04-02T00:56:51;100454.97;;;11.82;47.82
77776;BME280;66965;43.328;6.668;2023-04-02T01:01:44;100482.66;;;11.92;47.42
77776;BME280;66965;43.328;6.668;2023-04-02T01:04:34;100474.13;;;11.85;47.77
77776;BME280;66965;43.328;6.668;2023-04-02T01:07:07;100475.91;;;11.85;47.79
77776;BME280;66965;43.328;6.668;2023-04-02T01:13:22;100490.00;;;11.81;47.97
77776;BME280;66965;43.328;6.668;2023-04-02T01:16:05;100473.56;;;11.76;48.68
77776;BME280;66965;43.328;6.668;2023-04-02T01:21:50;100469.19;;;11.75;48.73
77776;BME280;66965;43.328;6.668;2023-04-02T01:24:20;100473.78;;;11.67;48.66
77776;BME280;66965;43.328;6.668;2023-04-02T01:26:53;100477.28;;;11.69;48.73
77776;BME280;66965;43.328;6.668;2023-04-02T01:31:52;100482.13;;;11.81;48.31
77776;BME280;66965;43.328;6.668;2023-04-02T01:34:21;100471.28;;;11.64;48.92
77776;BME280;66965;43.328;6.668;2023-04-02T01:39:58;100476.53;;;11.64;48.97
77776;BME280;66965;43.328;6.668;2023-04-02T01:45:08;100463.81;;;11.50;49.59
77776;BME280;66965;43.328;6.668;2023-04-02T01:47:34;100465.38;;;11.56;49.78
77776;BME280;66965;43.328;6.668;2023-04-02T01:50:25;100459.25;;;11.57;49.53
77776;BME280;66965;43.328;6.668;2023-04-02T01:52:59;100448.94;;;11.51;49.78
77776;BME280;66965;43.328;6.668;2023-04-02T01:55:48;100446.94;;;11.59;49.86
77776;BME280;66965;43.328;6.668;2023-04-02T01:58:16;100445.03;;;11.64;49.49
77776;BME280;66965;43.328;6.668;2023-04-02T02:00:49;100444.22;;;11.62;49.58
77776;BME280;66965;43.328;6.668;2023-04-02T02:03:16;100446.41;;;11.77;49.26
77776;BME280;66965;43.328;6.668;2023-04-02T02:05:43;100442.94;;;11.75;49.41
77776;BME280;66965;43.328;6.668;2023-04-02T02:08:22;100442.03;;;11.76;49.95
77776;BME280;66965;43.328;6.668;2023-04-02T02:10:50;100438.09;;;11.89;49.73
77776;BME280;66965;43.328;6.668;2023-04-02T02:13:16;100440.63;;;11.92;49.90
77776;BME280;66965;43.328;6.668;2023-04-02T02:15:41;100445.75;;;11.97;49.56
77776;BME280;66965;43.328;6.668;2023-04-02T02:18:10;100443.56;;;12.09;49.78
77776;BME280;66965;43.328;6.668;2023-04-02T02:20:37;100434.53;;;12.18;49.47
77776;BME280;66965;43.328;6.668;2023-04-02T02:23:03;100435.22;;;12.23;48.94
77776;BME280;66965;43.328;6.668;2023-04-02T02:25:31;100437.84;;;12.23;49.82
77776;BME280;66965;43.328;6.668;2023-04-02T02:28:08;100429.19;;;12.19;49.67
77776;BME280;66965;43.328;6.668;2023-04-02T02:30:42;100434.31;;;12.24;50.19
77776;BME280;66965;43.328;6.668;2023-04-02T02:40:59;100437.47;;;12.33;51.11
77776;BME280;66965;43.328;6.668;2023-04-02T02:43:28;100436.88;;;12.50;50.36
77776;BME280;66965;43.328;6.668;2023-04-02T02:45:55;100437.84;;;12.47;50.70
77776;BME280;66965;43.328;6.668;2023-04-02T02:48:27;100441.25;;;12.51;50.66
77776;BME280;66965;43.328;6.668;2023-04-02T02:50:54;100433.97;;;12.58;50.44
77776;BME280;66965;43.328;6.668;2023-04-02T02:53:23;100423.94;;;12.44;51.27
77776;BME280;66965;43.328;6.668;2023-04-02T02:55:53;100429.47;;;12.36;51.88
77776;BME280;66965;43.328;6.668;2023-04-02T02:58:25;100437.16;;;12.42;51.78
77776;BME280;66965;43.328;6.668;2023-04-02T03:00:52;100426.16;;;12.31;52.41
77776;BME280;66965;43.328;6.668;2023-04-02T03:03:22;100437.75;;;12.26;52.73
77776;BME280;66965;43.328;6.668;2023-04-02T03:05:53;100431.94;;;12.41;52.06
77776;BME280;66965;43.328;6.668;2023-04-02T03:08:25;100428.31;;;12.45;52.17
77776;BME280;66965;43.328;6.668;2023-04-02T03:10:59;100436.88;;;12.25;53.09
77776;BME280;66965;43.328;6.668;2023-04-02T03:13:29;100436.34;;;12.40;52.29
77776;BME280;66965;43.328;6.668;2023-04-02T03:16:27;100437.84;;;12.47;52.47
77776;BME280;66965;43.328;6.668;2023-04-02T03:27:52;100425.47;;;12.26;52.88
77776;BME280;66965;43.328;6.668;2023-04-02T03:32:45;100434.16;;;12.28;53.62
77776;BME280;66965;43.328;6.668;2023-04-02T03:35:36;100432.88;;;12.14;54.33
77776;BME280;66965;43.328;6.668;2023-04-02T03:38:23;100426.03;;;12.10;54.34
77776;BME280;66965;43.328;6.668;2023-04-02T03:41:17;100436.47;;;12.11;54.21
77776;BME280;66965;43.328;6.668;2023-04-02T03:43:51;100437.25;;;12.15;54.30
77776;BME280;66965;43.328;6.668;2023-04-02T03:46:35;100437.06;;;12.19;54.20
77776;BME280;66965;43.328;6.668;2023-04-02T03:49:22;100444.69;;;12.27;54.16
77776;BME280;66965;43.328;6.668;2023-04-02T03:52:09;100452.13;;;12.16;54.07
77776;BME280;66965;43.328;6.668;2023-04-02T03:54:37;100458.31;;;12.13;54.36
77776;BME280;66965;43.328;6.668;2023-04-02T03:57:02;100465.81;;;11.99;54.97
77776;BME280;66965;43.328;6.668;2023-04-02T03:59:43;100466.22;;;11.58;55.33
77776;BME280;66965;43.328;6.668;2023-04-02T04:04:42;100468.94;;;11.55;54.18
77776;BME280;66965;43.328;6.668;2023-04-02T04:07:17;100476.09;;;11.50;54.56
77776;BME280;66965;43.328;6.668;2023-04-02T04:09:45;100477.19;;;11.43;53.45
77776;BME280;66965;43.328;6.668;2023-04-02T04:15:53;100481.44;;;11.47;51.72
77776;BME280;66965;43.328;6.668;2023-04-02T04:18:18;100483.44;;;11.39;51.55
77776;BME280;66965;43.328;6.668;2023-04-02T04:20:56;100485.13;;;11.40;51.50
77776;BME280;66965;43.328;6.668;2023-04-02T04:23:28;100480.84;;;11.37;51.07
77776;BME280;66965;43.328;6.668;2023-04-02T04:26:06;100480.09;;;11.34;51.57
77776;BME280;66965;43.328;6.668;2023-04-02T04:29:32;100492.59;;;11.25;51.75
77776;BME280;66965;43.328;6.668;2023-04-02T04:31:57;100500.16;;;11.35;51.34
77776;BME280;66965;43.328;6.668;2023-04-02T04:34:43;100500.25;;;11.31;51.55
77776;BME280;66965;43.328;6.668;2023-04-02T04:37:23;100516.00;;;11.31;51.39
77776;BME280;66965;43.328;6.668;2023-04-02T04:42:43;100525.66;;;11.60;50.48
77776;BME280;66965;43.328;6.668;2023-04-02T04:48:01;100520.09;;;11.71;49.79
77776;BME280;66965;43.328;6.668;2023-04-02T04:50:46;100525.34;;;11.71;49.42
77776;BME280;66965;43.328;6.668;2023-04-02T04:53:23;100533.78;;;11.80;48.85
77776;BME280;66965;43.328;6.668;2023-04-02T04:55:53;100537.03;;;11.88;48.62
77776;BME280;66965;43.328;6.668;2023-04-02T04:58:41;100550.50;;;12.06;48.26
77776;BME280;66965;43.328;6.668;2023-04-02T05:01:22;100555.91;;;12.01;47.99
77776;BME280;66965;43.328;6.668;2023-04-02T05:04:04;100552.34;;;12.04;47.62
77776;BME280;66965;43.328;6.668;2023-04-02T05:12:04;100558.28;;;12.10;47.33
77776;BME280;66965;43.328;6.668;2023-04-02T05:14:55;100565.28;;;12.10;47.85
77776;BME280;66965;43.328;6.668;2023-04-02T05:22:45;100558.81;;;11.92;48.08
77776;BME280;66965;43.328;6.668;2023-04-02T05:25:29;100554.16;;;12.02;48.00
77776;BME280;66965;43.328;6.668;2023-04-02T05:28:06;100556.69;;;12.05;48.23
77776;BME280;66965;43.328;6.668;2023-04-02T05:30:42;100559.75;;;11.91;48.25
77776;BME280;66965;43.328;6.668;2023-04-02T05:33:29;100577.13;;;11.95;48.19
77776;BME280;66965;43.328;6.668;2023-04-02T05:38:28;100590.31;;;11.94;48.47
77776;BME280;66965;43.328;6.668;2023-04-02T05:43:33;100607.34;;;12.08;48.06
77776;BME280;66965;43.328;6.668;2023-04-02T05:46:02;100607.63;;;12.27;47.57
77776;BME280;66965;43.328;6.668;2023-04-02T05:48:36;100620.97;;;12.48;46.95
77776;BME280;66965;43.328;6.668;2023-04-02T05:51:08;100623.19;;;12.61;46.60
77776;BME280;66965;43.328;6.668;2023-04-02T05:53:43;100623.09;;;12.64;46.53
77776;BME280;66965;43.328;6.668;2023-04-02T05:56:21;100619.84;;;12.82;45.55
77776;BME280;66965;43.328;6.668;2023-04-02T05:59:01;100618.94;;;12.83;45.72
77776;BME280;66965;43.328;6.668;2023-04-02T06:04:35;100637.66;;;13.00;45.79
77776;BME280;66965;43.328;6.668;2023-04-02T06:07:21;100636.28;;;13.15;45.64
77776;BME280;66965;43.328;6.668;2023-04-02T06:10:00;100630.28;;;13.11;45.63
77776;BME280;66965;43.328;6.668;2023-04-02T06:14:57;100648.94;;;13.30;45.55
77776;BME280;66965;43.328;6.668;2023-04-02T06:17:22;100652.03;;;13.41;45.21
77776;BME280;66965;43.328;6.668;2023-04-02T06:19:50;100636.94;;;13.46;45.47
77776;BME280;66965;43.328;6.668;2023-04-02T06:24:52;100645.84;;;13.42;45.68
77776;BME280;66965;43.328;6.668;2023-04-02T06:27:20;100646.59;;;13.45;47.07
77776;BME280;66965;43.328;6.668;2023-04-02T06:29:49;100657.22;;;13.44;45.31
77776;BME280;66965;43.328;6.668;2023-04-02T06:32:18;100674.31;;;13.55;45.24
77776;BME280;66965;43.328;6.668;2023-04-02T06:34:46;100675.47;;;13.72;45.15
77776;BME280;66965;43.328;6.668;2023-04-02T06:37:28;100671.28;;;13.66;44.63
77776;BME280;66965;43.328;6.668;2023-04-02T06:39:56;100677.78;;;13.81;43.93
77776;BME280;66965;43.328;6.668;2023-04-02T06:42:26;100675.16;;;13.81;44.39
77776;BME280;66965;43.328;6.668;2023-04-02T06:44:53;100685.28;;;13.91;44.46
77776;BME280;66965;43.328;6.668;2023-04-02T06:49:59;100703.19;;;14.06;43.22
77776;BME280;66965;43.328;6.668;2023-04-02T06:52:39;100701.28;;;14.10;42.98
77776;BME280;66965;43.328;6.668;2023-04-02T06:57:51;100709.09;;;14.36;42.49
77776;BME280;66965;43.328;6.668;2023-04-02T07:00:33;100709.72;;;14.43;41.38
77776;BME280;66965;43.328;6.668;2023-04-02T07:03:01;100691.44;;;14.60;42.13
77776;BME280;66965;43.328;6.668;2023-04-02T07:05:29;100703.06;;;14.77;41.79
77776;BME280;66965;43.328;6.668;2023-04-02T07:07:55;100703.06;;;14.77;41.26
77776;BME280;66965;43.328;6.668;2023-04-02T07:10:21;100705.31;;;14.87;40.64
77776;BME280;66965;43.328;6.668;2023-04-02T07:12:46;100711.09;;;14.96;40.28
77776;BME280;66965;43.328;6.668;2023-04-02T07:15:16;100728.22;;;15.08;39.61
77776;BME280;66965;43.328;6.668;2023-04-02T07:17:44;100732.97;;;15.20;39.50
77776;BME280;66965;43.328;6.668;2023-04-02T07:20:23;100726.84;;;15.39;39.40
77776;BME280;66965;43.328;6.668;2023-04-02T07:22:48;100737.53;;;15.78;38.70
77776;BME280;66965;43.328;6.668;2023-04-02T07:25:14;100744.72;;;15.95;38.16
77776;BME280;66965;43.328;6.668;2023-04-02T07:27:40;100756.25;;;16.13;37.82
77776;BME280;66965;43.328;6.668;2023-04-02T07:30:06;100775.84;;;16.27;37.61
77776;BME280;66965;43.328;6.668;2023-04-02T07:32:31;100776.41;;;16.15;41.99
77776;BME280;66965;43.328;6.668;2023-04-02T07:34:57;100788.16;;;15.89;49.90
77776;BME280;66965;43.328;6.668;2023-04-02T07:37:22;100796.59;;;15.57;52.69
77776;BME280;66965;43.328;6.668;2023-04-02T07:39:48;100798.81;;;15.46;53.22
77776;BME280;66965;43.328;6.668;2023-04-02T07:42:13;100799.28;;;15.96;50.52
77776;BME280;66965;43.328;6.668;2023-04-02T07:44:38;100809.91;;;16.55;48.88
77776;BME280;66965;43.328;6.668;2023-04-02T07:47:04;100813.03;;;16.82;48.40
77776;BME280;66965;43.328;6.668;2023-04-02T07:49:30;100820.72;;;16.69;48.72
77776;BME280;66965;43.328;6.668;2023-04-02T07:51:55;100820.66;;;17.25;45.60
77776;BME280;66965;43.328;6.668;2023-04-02T07:54:21;100829.09;;;17.86;44.78
77776;BME280;66965;43.328;6.668;2023-04-02T07:56:46;100832.19;;;17.77;44.58
77776;BME280;66965;43.328;6.668;2023-04-02T07:59:11;100836.63;;;18.61;41.18
77776;BME280;66965;43.328;6.668;2023-04-02T08:01:37;100835.63;;;19.57;38.35
77776;BME280;66965;43.328;6.668;2023-04-02T08:04:03;100843.13;;;19.80;37.78
77776;BME280;66965;43.328;6.668;2023-04-02T08:06:29;100844.72;;;20.56;36.00
77776;BME280;66965;43.328;6.668;2023-04-02T08:08:56;100848.72;;;21.04;32.92
77776;BME280;66965;43.328;6.668;2023-04-02T08:11:21;100851.72;;;21.00;33.83
77776;BME280;66965;43.328;6.668;2023-04-02T08:13:47;100849.72;;;21.44;34.45
77776;BME280;66965;43.328;6.668;2023-04-02T08:16:12;100855.06;;;21.44;35.11
77776;BME280;66965;43.328;6.668;2023-04-02T08:18:38;100857.53;;;20.50;36.27
77776;BME280;66965;43.328;6.668;2023-04-02T08:21:08;100861.28;;;21.31;34.08
77776;BME280;66965;43.328;6.668;2023-04-02T08:23:34;100867.09;;;21.23;32.59
77776;BME280;66965;43.328;6.668;2023-04-02T08:26:00;100862.16;;;21.97;33.44
77776;BME280;66965;43.328;6.668;2023-04-02T08:28:25;100869.91;;;22.27;30.91
77776;BME280;66965;43.328;6.668;2023-04-02T08:30:51;100872.81;;;22.24;32.87
77776;BME280;66965;43.328;6.668;2023-04-02T08:33:17;100874.72;;;22.60;32.68
77776;BME280;66965;43.328;6.668;2023-04-02T08:35:45;100879.31;;;22.58;32.85
77776;BME280;66965;43.328;6.668;2023-04-02T08:38:16;100884.47;;;21.69;34.92
77776;BME280;66965;43.328;6.668;2023-04-02T08:40:44;100881.72;;;21.98;34.10
77776;BME280;66965;43.328;6.668;2023-04-02T08:46:15;100894.38;;;21.55;36.84
77776;BME280;66965;43.328;6.668;2023-04-02T08:48:48;100900.81;;;21.65;37.43
77776;BME280;66965;43.328;6.668;2023-04-02T08:51:35;100907.88;;;21.66;38.43
77776;BME280;66965;43.328;6.668;2023-04-02T09:00:07;100918.34;;;21.28;41.21
77776;BME280;66965;43.328;6.668;2023-04-02T09:02:45;100918.16;;;21.31;41.78
77776;BME280;66965;43.328;6.668;2023-04-02T09:05:27;100918.94;;;20.62;43.43
77776;BME280;66965;43.328;6.668;2023-04-02T09:07:55;100918.56;;;21.78;41.28
77776;BME280;66965;43.328;6.668;2023-04-02T09:10:34;100918.56;;;22.05;42.35
77776;BME280;66965;43.328;6.668;2023-04-02T09:13:02;100922.69;;;22.36;40.97
77776;BME280;66965;43.328;6.668;2023-04-02T09:15:34;100937.13;;;20.98;44.32
77776;BME280;66965;43.328;6.668;2023-04-02T09:18:12;100936.44;;;21.23;44.74
77776;BME280;66965;43.328;6.668;2023-04-02T09:20:38;100936.59;;;20.63;46.07
77776;BME280;66965;43.328;6.668;2023-04-02T09:23:04;100939.75;;;20.70;46.69
77776;BME280;66965;43.328;6.668;2023-04-02T09:25:30;100944.59;;;21.48;44.28
77776;BME280;66965;43.328;6.668;2023-04-02T09:28:01;100951.72;;;21.48;44.29
77776;BME280;66965;43.328;6.668;2023-04-02T09:33:05;100949.22;;;22.00;44.94
77776;BME280;66965;43.328;6.668;2023-04-02T09:35:36;100950.34;;;22.22;44.28
77776;BME280;66965;43.328;6.668;2023-04-02T09:38:19;100965.03;;;22.03;46.70
77776;BME280;66965;43.328;6.668;2023-04-02T09:41:01;100961.16;;;21.53;47.36
77776;BME280;66965;43.328;6.668;2023-04-02T09:43:37;100965.50;;;22.61;45.05
77776;BME280;66965;43.328;6.668;2023-04-02T09:48:43;100967.41;;;22.59;44.72
77776;BME280;66965;43.328;6.668;2023-04-02T09:51:23;100966.41;;;21.96;47.42
77776;BME280;66965;43.328;6.668;2023-04-02T09:54:10;100975.22;;;22.10;45.41
77776;BME280;66965;43.328;6.668;2023-04-02T09:56:39;100980.59;;;22.87;43.82
77776;BME280;66965;43.328;6.668;2023-04-02T10:07:03;100979.72;;;23.12;42.54
77776;BME280;66965;43.328;6.668;2023-04-02T10:09:35;100994.81;;;23.75;40.24
77776;BME280;66965;43.328;6.668;2023-04-02T10:12:05;100985.59;;;23.55;40.64
77776;BME280;66965;43.328;6.668;2023-04-02T10:14:43;100991.47;;;23.60;40.30
77776;BME280;66965;43.328;6.668;2023-04-02T10:17:43;100987.13;;;22.83;42.13
77776;BME280;66965;43.328;6.668;2023-04-02T10:20:18;100988.81;;;23.84;39.21
77776;BME280;66965;43.328;6.668;2023-04-02T10:22:47;100986.59;;;24.01;39.56
77776;BME280;66965;43.328;6.668;2023-04-02T10:25:16;100991.97;;;24.60;37.28
77776;BME280;66965;43.328;6.668;2023-04-02T10:30:28;100985.38;;;24.99;37.06
77776;BME280;66965;43.328;6.668;2023-04-02T10:33:04;100998.06;;;25.08;37.05
77776;BME280;66965;43.328;6.668;2023-04-02T10:35:53;100997.22;;;25.18;35.50
77776;BME280;66965;43.328;6.668;2023-04-02T10:49:17;100997.94;;;25.43;33.73
77776;BME280;66965;43.328;6.668;2023-04-02T10:51:47;101003.59;;;25.51;34.45
77776;BME280;66965;43.328;6.668;2023-04-02T10:56:52;100996.38;;;25.51;32.56
77776;BME280;66965;43.328;6.668;2023-04-02T10:59:41;100997.97;;;26.08;32.64
77776;BME280;66965;43.328;6.668;2023-04-02T11:04:49;101001.13;;;26.13;32.66
77776;BME280;66965;43.328;6.668;2023-04-02T11:07:20;101004.78;;;25.24;33.42
77776;BME280;66965;43.328;6.668;2023-04-02T11:09:51;101003.34;;;25.54;32.96
77776;BME280;66965;43.328;6.668;2023-04-02T11:12:40;101001.72;;;25.40;33.26
77776;BME280;66965;43.328;6.668;2023-04-02T11:15:15;101003.06;;;25.34;32.42
77776;BME280;66965;43.328;6.668;2023-04-02T11:17:43;101008.06;;;24.60;33.90
77776;BME280;66965;43.328;6.668;2023-04-02T11:20:41;101009.66;;;24.97;34.10
77776;BME280;66965;43.328;6.668;2023-04-02T11:23:10;101007.06;;;24.85;34.50
77776;BME280;66965;43.328;6.668;2023-04-02T11:25:36;101017.94;;;24.94;34.56
77776;BME280;66965;43.328;6.668;2023-04-02T11:30:57;101011.81;;;25.03;33.55
77776;BME280;66965;43.328;6.668;2023-04-02T11:33:41;101019.41;;;25.09;33.94
77776;BME280;66965;43.328;6.668;2023-04-02T11:39:10;101019.00;;;25.03;33.41
77776;BME280;66965;43.328;6.668;2023-04-02T11:44:23;101019.03;;;25.25;31.97
77776;BME280;66965;43.328;6.668;2023-04-02T11:46:49;101015.78;;;25.32;31.67
77776;BME280;66965;43.328;6.668;2023-04-02T11:49:36;101026.00;;;25.39;32.05
77776;BME280;66965;43.328;6.668;2023-04-02T11:52:04;101030.25;;;23.17;34.94
77776;BME280;66965;43.328;6.668;2023-04-02T11:54:33;101030.34;;;24.26;33.84
77776;BME280;66965;43.328;6.668;2023-04-02T11:57:39;101034.03;;;24.70;33.02
77776;BME280;66965;43.328;6.668;2023-04-02T12:00:18;101029.53;;;25.17;32.28
77776;BME280;66965;43.328;6.668;2023-04-02T12:05:54;101027.88;;;24.46;33.66
77776;BME280;66965;43.328;6.668;2023-04-02T12:11:06;101028.03;;;26.02;30.81
77776;BME280;66965;43.328;6.668;2023-04-02T12:16:05;101034.13;;;24.23;33.47
77776;BME280;66965;43.328;6.668;2023-04-02T12:18:32;101030.53;;;22.87;36.39
77776;BME280;66965;43.328;6.668;2023-04-02T12:20:58;101023.91;;;21.87;38.85
77776;BME280;66965;43.328;6.668;2023-04-02T12:23:29;101008.34;;;21.24;40.86
77776;BME280;66965;43.328;6.668;2023-04-02T12:25:59;101014.72;;;21.08;41.46
77776;BME280;66965;43.328;6.668;2023-04-02T12:28:29;101013.69;;;20.66;41.90
77776;BME280;66965;43.328;6.668;2023-04-02T12:31:12;101011.78;;;20.68;41.82
77776;BME280;66965;43.328;6.668;2023-04-02T12:33:39;101014.81;;;20.62;41.58
77776;BME280;66965;43.328;6.668;2023-04-02T12:36:16;101022.81;;;20.77;41.22
77776;BME280;66965;43.328;6.668;2023-04-02T12:38:45;101015.34;;;20.97;41.53
77776;BME280;66965;43.328;6.668;2023-04-02T12:41:37;101013.25;;;21.02;41.05
77776;BME280;66965;43.328;6.668;2023-04-02T12:44:05;101021.59;;;20.82;42.14
77776;BME280;66965;43.328;6.668;2023-04-02T12:46:33;101019.88;;;20.67;42.51
77776;BME280;66965;43.328;6.668;2023-04-02T12:51:43;101026.00;;;19.77;44.53
77776;BME280;66965;43.328;6.668;2023-04-02T12:54:14;101021.91;;;19.56;45.37
77776;BME280;66965;43.328;6.668;2023-04-02T12:56:41;101021.63;;;19.44;45.88
77776;BME280;66965;43.328;6.668;2023-04-02T12:59:27;101013.81;;;19.24;46.10
77776;BME280;66965;43.328;6.668;2023-04-02T13:01:57;101027.41;;;18.85;46.50
77776;BME280;66965;43.328;6.668;2023-04-02T13:04:23;101027.84;;;18.42;48.46
77776;BME280;66965;43.328;6.668;2023-04-02T13:06:50;101041.63;;;18.14;48.28
77776;BME280;66965;43.328;6.668;2023-04-02T13:09:40;101043.72;;;17.52;48.33
77776;BME280;66965;43.328;6.668;2023-04-02T13:12:34;101044.88;;;17.46;46.37
77776;BME280;66965;43.328;6.668;2023-04-02T13:15:06;101053.59;;;17.30;45.30
77776;BME280;66965;43.328;6.668;2023-04-02T13:17:44;101056.16;;;17.12;42.75
77776;BME280;66965;43.328;6.668;2023-04-02T13:20:32;101054.03;;;17.21;43.30
77776;BME280;66965;43.328;6.668;2023-04-02T13:22:59;101045.00;;;17.25;41.53
77776;BME280;66965;43.328;6.668;2023-04-02T13:25:31;101055.69;;;17.03;43.01
77776;BME280;66965;43.328;6.668;2023-04-02T13:27:59;101062.13;;;16.97;43.33
77776;BME280;66965;43.328;6.668;2023-04-02T13:30:26;101064.50;;;16.83;43.36
77776;BME280;66965;43.328;6.668;2023-04-02T13:32:52;101066.03;;;16.69;43.71
77776;BME280;66965;43.328;6.668;2023-04-02T13:35:17;101052.56;;;16.53;43.25
77776;BME280;66965;43.328;6.668;2023-04-02T13:37:43;101061.59;;;16.69;43.30
77776;BME280;66965;43.328;6.668;2023-04-02T13:40:15;101053.13;;;16.61;42.61
77776;BME280;66965;43.328;6.668;2023-04-02T13:42:42;101043.13;;;16.68;42.29
77776;BME280;66965;43.328;6.668;2023-04-02T13:45:24;101042.47;;;16.63;41.85
77776;BME280;66965;43.328;6.668;2023-04-02T13:47:51;101049.31;;;16.67;42.23
77776;BME280;66965;43.328;6.668;2023-04-02T13:50:22;101053.25;;;16.58;41.58
77776;BME280;66965;43.328;6.668;2023-04-02T13:52:50;101039.31;;;16.53;42.92
77776;BME280;66965;43.328;6.668;2023-04-02T13:55:18;101042.38;;;16.64;41.29
77776;BME280;66965;43.328;6.668;2023-04-02T13:57:44;101043.13;;;16.68;40.26
77776;BME280;66965;43.328;6.668;2023-04-02T14:00:10;101057.84;;;16.53;39.73
77776;BME280;66965;43.328;6.668;2023-04-02T14:02:38;101050.03;;;16.50;39.46
77776;BME280;66965;43.328;6.668;2023-04-02T14:26:36;101092.75;;;13.66;66.08
77776;BME280;66965;43.328;6.668;2023-04-02T14:37:22;101081.00;;;13.78;69.64
77776;BME280;66965;43.328;6.668;2023-04-02T14:40:12;101067.53;;;13.59;71.45
77776;BME280;66965;43.328;6.668;2023-04-02T14:42:49;101066.78;;;13.83;71.81
77776;BME280;66965;43.328;6.668;2023-04-02T14:45:28;101061.72;;;14.05;72.58
77776;BME280;66965;43.328;6.668;2023-04-02T14:48:02;101051.50;;;13.94;72.74
77776;BME280;66965;43.328;6.668;2023-04-02T14:50:37;101045.34;;;13.66;72.49
77776;BME280;66965;43.328;6.668;2023-04-02T14:53:35;101025.34;;;13.60;71.21
77776;BME280;66965;43.328;6.668;2023-04-02T14:56:06;100997.31;;;13.86;70.95
77776;BME280;66965;43.328;6.668;2023-04-02T14:58:38;100975.03;;;13.96;73.37
77776;BME280;66965;43.328;6.668;2023-04-02T15:01:10;100949.88;;;13.86;73.28
77776;BME280;66965;43.328;6.668;2023-04-02T15:03:49;100945.50;;;14.12;73.12
77776;BME280;66965;43.328;6.668;2023-04-02T15:06:21;100949.09;;;14.36;73.32
77776;BME280;66965;43.328;6.668;2023-04-02T15:08:55;100946.34;;;14.39;71.28
77776;BME280;66965;43.328;6.668;2023-04-02T15:11:35;100946.56;;;14.58;69.08
77776;BME280;66965;43.328;6.668;2023-04-02T15:14:30;100949.31;;;14.55;65.76
77776;BME280;66965;43.328;6.668;2023-04-02T15:16:57;100952.25;;;14.70;65.65
77776;BME280;66965;43.328;6.668;2023-04-02T15:19:22;100952.16;;;14.97;67.13
77776;BME280;66965;43.328;6.668;2023-04-02T15:21:59;100949.16;;;14.82;65.11
77776;BME280;66965;43.328;6.668;2023-04-02T15:30:27;100941.44;;;15.24;58.27
77776;BME280;66965;43.328;6.668;2023-04-02T15:32:56;100951.81;;;15.29;55.81
77776;BME280;66965;43.328;6.668;2023-04-02T15:35:48;100934.13;;;15.54;52.07
77776;BME280;66965;43.328;6.668;2023-04-02T15:41:09;100931.84;;;16.29;48.81
77776;BME280;66965;43.328;6.668;2023-04-02T15:43:38;100938.50;;;16.59;47.64
77776;BME280;66965;43.328;6.668;2023-04-02T15:52:04;100955.88;;;16.85;50.75
77776;BME280;66965;43.328;6.668;2023-04-02T16:10:43;100967.38;;;17.60;42.74
77776;BME280;66965;43.328;6.668;2023-04-02T16:15:42;100966.66;;;17.38;42.40
77776;BME280;66965;43.328;6.668;2023-04-02T16:18:15;100976.38;;;17.18;43.13
77776;BME280;66965;43.328;6.668;2023-04-02T16:20:46;100976.81;;;17.09;44.87
77776;BME280;66965;43.328;6.668;2023-04-02T16:23:16;100985.38;;;16.96;44.13
77776;BME280;66965;43.328;6.668;2023-04-02T16:28:28;100989.91;;;16.74;42.72
77776;BME280;66965;43.328;6.668;2023-04-02T16:31:10;100996.25;;;16.70;43.90
77776;BME280;66965;43.328;6.668;2023-04-02T16:34:05;100991.56;;;16.56;45.94
77776;BME280;66965;43.328;6.668;2023-04-02T16:36:41;100991.00;;;16.48;44.66
77776;BME280;66965;43.328;6.668;2023-04-02T16:39:24;100992.59;;;16.72;43.01
77776;BME280;66965;43.328;6.668;2023-04-02T16:44:47;100986.63;;;16.69;44.83
77776;BME280;66965;43.328;6.668;2023-04-02T16:47:44;100994.72;;;16.64;45.78
77776;BME280;66965;43.328;6.668;2023-04-02T16:53:19;101010.06;;;16.36;50.70
77776;BME280;66965;43.328;6.668;2023-04-02T17:04:36;101027.75;;;15.92;51.22
77776;BME280;66965;43.328;6.668;2023-04-02T17:07:14;101024.97;;;15.73;51.67
77776;BME280;66965;43.328;6.668;2023-04-02T17:09:52;101027.78;;;15.69;50.71